createdAt,value
2023-04-09T00:01:13.304Z,8.93
2023-04-09T00:03:45.202Z,9.06
2023-04-09T00:06:17.251Z,9.03
2023-04-09T00:08:50.180Z,9.00
2023-04-09T00:11:22.532Z,9.37
2023-04-09T00:13:54.573Z,9.49
2023-04-09T00:16:26.364Z,9.27
2023-04-09T00:18:58.154Z,9.59
2023-04-09T00:21:29.983Z,10.16
2023-04-09T00:24:01.618Z,9.88
2023-04-09T00:26:33.518Z,10.15
2023-04-09T00:29:05.300Z,10.30
2023-04-09T00:31:37.074Z,10.64
2023-04-09T00:34:08.868Z,10.50
2023-04-09T00:36:42.078Z,10.10
2023-04-09T00:39:13.869Z,9.99
2023-04-09T00:41:45.728Z,10.60
2023-04-09T00:44:17.803Z,10.74
2023-04-09T00:46:49.607Z,10.91
2023-04-09T00:49:22.538Z,10.81
2023-04-09T00:51:54.695Z,10.82
2023-04-09T00:54:27.668Z,10.53
2023-04-09T00:56:59.841Z,10.98
2023-04-09T00:59:32.665Z,10.83
2023-04-09T01:02:04.652Z,10.46
2023-04-09T01:04:38.168Z,10.61
2023-04-09T01:07:32.052Z,10.91
2023-04-09T01:10:28.464Z,11.49
2023-04-09T01:13:09.705Z,11.41
2023-04-09T01:15:52.206Z,11.89
2023-04-09T01:18:30.954Z,11.76
2023-04-09T01:21:26.051Z,11.45
2023-04-09T01:24:16.724Z,11.99
2023-04-09T01:26:58.299Z,12.85
2023-04-09T01:29:51.546Z,12.86
2023-04-09T01:32:29.866Z,13.62
2023-04-09T01:35:06.506Z,13.46
2023-04-09T01:37:40.646Z,13.34
2023-04-09T01:40:12.847Z,14.67
2023-04-09T01:42:48.086Z,15.09
2023-04-09T01:45:20.961Z,15.00
2023-04-09T01:47:55.468Z,16.35
2023-04-09T01:50:27.361Z,16.07
2023-04-09T01:53:01.302Z,16.65
2023-04-09T01:55:33.531Z,17.02
2023-04-09T01:58:05.781Z,17.04
2023-04-09T02:00:48.176Z,18.14
2023-04-09T02:03:46.480Z,17.86
2023-04-09T02:06:44.355Z,19.17
2023-04-09T02:09:20.400Z,19.80
2023-04-09T02:11:56.481Z,20.21
2023-04-09T02:14:32.369Z,19.90
2023-04-09T02:17:05.272Z,20.04
2023-04-09T02:19:44.006Z,21.46
2023-04-09T02:22:17.205Z,21.33
2023-04-09T02:24:50.534Z,21.12
2023-04-09T02:27:23.740Z,21.77
2023-04-09T02:29:56.452Z,22.31
2023-04-09T02:32:30.213Z,21.40
2023-04-09T02:35:13.146Z,21.51
2023-04-09T02:37:46.265Z,21.97
2023-04-09T02:40:18.982Z,22.07
2023-04-09T02:42:54.737Z,22.31
2023-04-09T02:45:27.487Z,21.84
2023-04-09T02:47:59.213Z,22.35
2023-04-09T02:50:31.066Z,22.08
2023-04-09T02:53:02.894Z,22.42
2023-04-09T02:55:34.673Z,23.35
2023-04-09T02:58:06.536Z,22.62
2023-04-09T03:00:38.264Z,22.79
2023-04-09T03:03:10.411Z,22.57
2023-04-09T03:05:42.280Z,22.73
2023-04-09T03:08:15.053Z,24.08
2023-04-09T03:10:47.720Z,23.53
2023-04-09T03:13:19.568Z,22.76
2023-04-09T03:15:52.567Z,23.26
2023-04-09T03:18:24.584Z,23.23
2023-04-09T03:20:56.737Z,23.15
2023-04-09T03:23:29.329Z,24.27
2023-04-09T03:26:02.445Z,24.55
2023-04-09T03:28:38.843Z,23.75
2023-04-09T03:31:10.593Z,24.26
2023-04-09T03:33:44.924Z,24.21
2023-04-09T03:36:17.288Z,24.43
2023-04-09T03:39:02.153Z,23.86
2023-04-09T03:41:37.602Z,23.99
2023-04-09T03:44:14.211Z,23.84
2023-04-09T03:47:11.984Z,24.25
2023-04-09T03:49:44.311Z,23.82
2023-04-09T03:52:25.113Z,25.94
2023-04-09T03:55:04.969Z,23.86
2023-04-09T03:57:36.854Z,23.34
2023-04-09T04:00:12.582Z,24.02
2023-04-09T04:02:56.676Z,23.93
2023-04-09T04:05:48.554Z,24.41
2023-04-09T04:08:22.346Z,24.47
2023-04-09T04:10:54.171Z,25.82
2023-04-09T04:13:27.380Z,25.84
2023-04-09T04:16:02.324Z,26.03
2023-04-09T04:18:35.266Z,25.27
2023-04-09T04:21:13.956Z,27.70
2023-04-09T04:23:50.020Z,25.61
2023-04-09T04:26:25.617Z,26.20
2023-04-09T04:28:57.510Z,25.92
2023-04-09T04:31:41.653Z,26.28
2023-04-09T04:34:14.084Z,26.77
2023-04-09T04:36:48.328Z,27.45
2023-04-09T04:39:20.435Z,27.79
2023-04-09T04:42:06.594Z,27.09
2023-04-09T04:44:38.599Z,27.99
2023-04-09T04:47:30.510Z,29.13
2023-04-09T04:50:03.795Z,27.65
2023-04-09T04:52:43.805Z,29.34
2023-04-09T04:55:16.742Z,28.20
2023-04-09T04:57:51.295Z,29.54
2023-04-09T05:00:24.728Z,29.37
2023-04-09T05:02:57.043Z,28.64
2023-04-09T05:05:39.442Z,30.24
2023-04-09T05:08:11.847Z,29.48
2023-04-09T05:10:43.907Z,28.54
2023-04-09T05:13:16.609Z,28.97
2023-04-09T05:15:48.210Z,29.52
2023-04-09T05:18:21.156Z,29.46
2023-04-09T05:20:52.956Z,29.43
2023-04-09T05:23:25.144Z,29.56
2023-04-09T05:25:56.960Z,27.66
2023-04-09T05:28:37.556Z,28.78
2023-04-09T05:31:18.579Z,30.63
2023-04-09T05:33:58.061Z,30.07
2023-04-09T05:36:39.039Z,29.90
2023-04-09T05:39:10.804Z,30.07
2023-04-09T05:41:42.555Z,28.31
2023-04-09T05:44:23.177Z,29.17
2023-04-09T05:46:58.148Z,28.79
2023-04-09T05:49:36.760Z,27.72
2023-04-09T05:52:15.639Z,27.51
2023-04-09T05:54:47.297Z,27.43
2023-04-09T05:57:23.514Z,27.44
2023-04-09T06:00:02.083Z,27.49
2023-04-09T06:02:34.089Z,27.46
2023-04-09T06:05:06.193Z,26.83
2023-04-09T06:07:37.978Z,27.03
2023-04-09T06:10:09.622Z,27.86
2023-04-09T06:12:41.370Z,27.38
2023-04-09T06:15:14.163Z,27.27
2023-04-09T06:17:46.753Z,25.97
2023-04-09T06:20:18.772Z,25.69
2023-04-09T06:22:50.736Z,25.98
2023-04-09T06:25:22.690Z,25.86
2023-04-09T06:27:54.549Z,25.64
2023-04-09T06:30:26.296Z,24.70
2023-04-09T06:32:58.180Z,25.24
2023-04-09T06:35:29.951Z,25.84
2023-04-09T06:38:02.055Z,26.04
2023-04-09T06:40:33.924Z,25.80
2023-04-09T06:43:06.526Z,25.35
2023-04-09T06:45:46.781Z,25.25
2023-04-09T06:48:18.639Z,25.57
2023-04-09T06:50:50.566Z,26.29
2023-04-09T06:53:22.654Z,27.54
2023-04-09T06:55:56.657Z,26.22
2023-04-09T06:58:29.018Z,25.83
2023-04-09T07:01:01.124Z,26.52
2023-04-09T07:03:33.488Z,26.18
2023-04-09T07:06:05.725Z,26.17
2023-04-09T07:08:37.631Z,27.62
2023-04-09T07:11:09.925Z,26.63
2023-04-09T07:13:41.892Z,26.20
2023-04-09T07:16:13.710Z,26.45
2023-04-09T07:18:45.507Z,26.48
2023-04-09T07:21:17.519Z,26.37
2023-04-09T07:23:49.878Z,25.64
2023-04-09T07:26:21.941Z,26.59
2023-04-09T07:28:53.637Z,26.44
2023-04-09T07:31:25.643Z,25.57
2023-04-09T07:33:57.312Z,26.55
2023-04-09T07:36:29.270Z,26.17
2023-04-09T07:39:01.192Z,24.98
2023-04-09T07:41:34.344Z,25.28
2023-04-09T07:44:06.346Z,24.84
2023-04-09T07:46:38.811Z,24.11
2023-04-09T07:49:11.122Z,24.63
2023-04-09T07:51:43.681Z,24.39
2023-04-09T07:54:15.665Z,23.95
2023-04-09T07:56:48.928Z,25.05
2023-04-09T07:59:20.814Z,24.73
2023-04-09T08:01:53.964Z,24.25
2023-04-09T08:04:27.953Z,25.93
2023-04-09T08:07:00.740Z,23.64
2023-04-09T08:09:32.573Z,23.43
2023-04-09T08:12:04.470Z,23.80
2023-04-09T08:14:36.172Z,23.39
2023-04-09T08:17:07.815Z,23.38
2023-04-09T08:19:41.754Z,23.15
2023-04-09T08:22:13.987Z,24.10
2023-04-09T08:24:51.455Z,24.69
2023-04-09T08:27:23.182Z,24.41
2023-04-09T08:29:54.937Z,23.85
2023-04-09T08:32:26.839Z,23.74
2023-04-09T08:34:58.623Z,23.67
2023-04-09T08:37:30.438Z,23.31
2023-04-09T08:40:02.146Z,23.20
2023-04-09T08:42:36.114Z,22.17
2023-04-09T08:45:08.763Z,22.62
2023-04-09T08:47:47.259Z,22.97
2023-04-09T08:50:20.080Z,20.98
2023-04-09T08:52:53.116Z,22.05
2023-04-09T08:55:25.140Z,21.49
2023-04-09T08:57:57.171Z,21.24
2023-04-09T09:00:28.825Z,21.47
2023-04-09T09:03:05.518Z,20.72
2023-04-09T09:05:45.240Z,20.96
2023-04-09T09:08:25.283Z,20.94
2023-04-09T09:10:56.962Z,21.19
2023-04-09T09:13:28.917Z,21.28
2023-04-09T09:16:14.003Z,20.67
2023-04-09T09:18:45.926Z,20.16
2023-04-09T09:21:18.472Z,21.11
2023-04-09T09:23:50.168Z,20.36
2023-04-09T09:26:24.767Z,20.04
2023-04-09T09:28:57.960Z,19.72
2023-04-09T09:31:29.922Z,19.06
2023-04-09T09:34:08.969Z,19.27
2023-04-09T09:36:41.483Z,19.51
2023-04-09T09:39:15.385Z,19.13
2023-04-09T09:41:48.120Z,19.29
2023-04-09T09:44:33.327Z,18.75
2023-04-09T09:47:06.234Z,18.66
2023-04-09T09:49:38.104Z,18.05
2023-04-09T09:52:11.582Z,17.13
2023-04-09T09:54:50.839Z,17.69
2023-04-09T09:57:27.597Z,17.46
2023-04-09T10:00:02.652Z,17.68
2023-04-09T10:02:51.582Z,17.93
2023-04-09T10:05:24.145Z,17.56
2023-04-09T10:07:58.098Z,17.69
2023-04-09T10:10:33.152Z,16.85
2023-04-09T10:13:07.553Z,16.66
2023-04-09T10:15:40.273Z,17.71
2023-04-09T10:18:12.851Z,17.38
2023-04-09T10:21:09.417Z,16.86
2023-04-09T10:23:44.847Z,15.83
2023-04-09T10:26:19.573Z,17.01
2023-04-09T10:29:04.977Z,18.00
2023-04-09T10:32:06.152Z,18.38
2023-04-09T10:34:43.429Z,16.65
2023-04-09T10:37:21.981Z,15.89
2023-04-09T10:39:54.522Z,16.73
2023-04-09T10:42:35.359Z,17.29
2023-04-09T10:45:13.281Z,16.18
2023-04-09T10:47:50.521Z,16.37
2023-04-09T10:50:26.703Z,17.10
2023-04-09T10:52:58.905Z,17.70
2023-04-09T10:55:30.483Z,16.93
2023-04-09T10:58:04.060Z,16.43
2023-04-09T11:00:41.821Z,15.58
2023-04-09T11:03:21.900Z,16.46
2023-04-09T11:05:58.375Z,16.74
2023-04-09T11:08:32.525Z,15.51
2023-04-09T11:11:04.672Z,16.03
2023-04-09T11:13:36.425Z,15.89
2023-04-09T11:16:08.169Z,15.25
2023-04-09T11:18:41.123Z,15.09
2023-04-09T11:21:12.953Z,14.51
2023-04-09T11:23:52.320Z,14.18
2023-04-09T11:26:36.331Z,14.09
2023-04-09T11:29:08.404Z,15.30
2023-04-09T11:31:44.842Z,14.90
2023-04-09T11:34:16.674Z,15.34
2023-04-09T11:36:51.372Z,15.13
2023-04-09T11:39:23.434Z,15.10
2023-04-09T11:41:55.352Z,14.52
2023-04-09T11:44:27.003Z,14.75
2023-04-09T11:47:00.139Z,14.66
2023-04-09T11:49:32.064Z,14.49
2023-04-09T11:52:04.699Z,13.80
2023-04-09T11:54:36.690Z,14.62
2023-04-09T11:57:08.495Z,14.47
2023-04-09T11:59:40.386Z,14.08
2023-04-09T12:02:12.296Z,14.72
2023-04-09T12:04:52.193Z,15.38
2023-04-09T12:07:32.520Z,14.76
2023-04-09T12:10:06.627Z,14.73
2023-04-09T12:12:48.042Z,14.82
2023-04-09T12:15:20.960Z,14.11
2023-04-09T12:17:56.061Z,14.78
2023-04-09T12:20:41.393Z,15.19
2023-04-09T12:23:15.646Z,15.74
2023-04-09T12:25:47.335Z,16.14
2023-04-09T12:28:19.384Z,15.97
2023-04-09T12:30:51.543Z,13.96
2023-04-09T12:33:23.520Z,14.74
2023-04-09T12:35:55.350Z,16.25
2023-04-09T12:38:27.378Z,15.72
2023-04-09T12:41:00.215Z,16.94
2023-04-09T12:43:32.212Z,16.68
2023-04-09T12:46:04.349Z,16.19
2023-04-09T12:48:36.734Z,15.56
2023-04-09T12:51:09.057Z,16.08
2023-04-09T12:53:42.255Z,16.62
2023-04-09T12:56:13.998Z,16.30
2023-04-09T12:58:46.033Z,17.17
2023-04-09T13:01:18.094Z,17.28
2023-04-09T13:03:51.112Z,16.78
2023-04-09T13:06:23.159Z,16.47
2023-04-09T13:08:55.137Z,16.96
2023-04-09T13:11:27.224Z,16.42
2023-04-09T13:13:59.142Z,17.08
2023-04-09T13:16:30.960Z,16.77
2023-04-09T13:19:03.397Z,16.98
2023-04-09T13:21:36.131Z,17.06
2023-04-09T13:24:08.341Z,16.59
2023-04-09T13:26:40.922Z,16.80
2023-04-09T13:29:13.678Z,16.76
2023-04-09T13:31:45.763Z,16.68
2023-04-09T13:34:17.468Z,16.17
2023-04-09T13:36:49.505Z,16.21
2023-04-09T13:39:21.277Z,16.56
2023-04-09T13:41:52.993Z,16.27
2023-04-09T13:44:25.306Z,16.40
2023-04-09T13:46:57.045Z,15.43
2023-04-09T13:49:28.900Z,15.81
2023-04-09T13:52:01.089Z,15.41
2023-04-09T13:54:33.836Z,15.18
2023-04-09T13:57:05.556Z,15.19
2023-04-09T13:59:37.590Z,15.04
2023-04-09T14:02:09.555Z,15.23
2023-04-09T14:04:41.383Z,14.53
2023-04-09T14:07:13.205Z,14.56
2023-04-09T14:09:44.888Z,14.10
2023-04-09T14:12:17.338Z,14.23
2023-04-09T14:14:49.119Z,14.59
2023-04-09T14:17:20.750Z,14.61
2023-04-09T14:19:52.446Z,14.13
2023-04-09T14:22:24.926Z,13.18
2023-04-09T14:24:56.623Z,13.43
2023-04-09T14:27:28.695Z,12.76
2023-04-09T14:30:00.496Z,14.03
2023-04-09T14:32:32.326Z,14.33
2023-04-09T14:35:04.696Z,13.85
2023-04-09T14:37:36.376Z,12.90
2023-04-09T14:40:08.928Z,13.15
2023-04-09T14:42:41.653Z,13.02
2023-04-09T14:45:13.619Z,12.63
2023-04-09T14:47:45.482Z,12.88
2023-04-09T14:50:17.398Z,12.72
2023-04-09T14:52:50.164Z,13.03
2023-04-09T14:55:22.233Z,12.37
2023-04-09T14:57:54.899Z,12.13
2023-04-09T15:00:26.652Z,11.19
2023-04-09T15:02:58.470Z,9.90
2023-04-09T15:05:30.644Z,9.21
2023-04-09T15:08:02.736Z,9.09
2023-04-09T15:10:36.724Z,8.36
2023-04-09T15:13:08.538Z,10.48
2023-04-09T15:15:41.009Z,10.07
2023-04-09T15:18:13.522Z,9.83
2023-04-09T15:20:45.936Z,8.85
2023-04-09T15:23:18.429Z,8.82
2023-04-09T15:25:52.101Z,7.39
2023-04-09T15:28:24.434Z,5.69
2023-04-09T15:30:56.803Z,5.91
2023-04-09T15:33:28.823Z,5.34
2023-04-09T15:36:01.273Z,5.68
2023-04-09T15:38:42.309Z,5.22
2023-04-09T15:41:14.190Z,5.06
2023-04-09T15:43:46.050Z,5.31
2023-04-09T15:46:19.349Z,5.05
2023-04-09T15:48:51.677Z,4.84
2023-04-09T15:51:23.998Z,4.95
2023-04-09T15:53:55.849Z,4.71
2023-04-09T15:56:28.407Z,4.64
2023-04-09T15:59:00.373Z,4.83
2023-04-09T16:01:32.683Z,5.00
2023-04-09T16:04:05.090Z,4.92
2023-04-09T16:06:38.295Z,4.52
2023-04-09T16:09:10.048Z,4.33
2023-04-09T16:11:42.121Z,4.26
2023-04-09T16:14:14.085Z,4.52
2023-04-09T16:16:45.899Z,4.36
2023-04-09T16:19:17.778Z,4.22
2023-04-09T16:21:49.488Z,3.84
2023-04-09T16:24:21.132Z,3.67
2023-04-09T16:26:53.217Z,3.59
2023-04-09T16:29:25.001Z,3.51
2023-04-09T16:31:57.035Z,3.65
2023-04-09T16:34:28.795Z,3.51
2023-04-09T16:37:00.489Z,3.52
2023-04-09T16:39:32.379Z,3.67
2023-04-09T16:42:04.362Z,3.69
2023-04-09T16:44:35.998Z,3.83
2023-04-09T16:47:07.693Z,4.03
2023-04-09T16:49:39.407Z,4.23
2023-04-09T16:52:11.221Z,4.12
2023-04-09T16:54:43.001Z,4.09
2023-04-09T16:57:15.309Z,3.70
2023-04-09T16:59:47.096Z,3.67
2023-04-09T17:02:18.992Z,3.93
2023-04-09T17:04:50.964Z,3.86
2023-04-09T17:07:23.104Z,4.01
2023-04-09T17:09:54.950Z,3.80
2023-04-09T17:12:26.910Z,3.78
2023-04-09T17:14:58.625Z,4.06
2023-04-09T17:17:30.463Z,3.80
2023-04-09T17:20:02.243Z,3.91
2023-04-09T17:22:34.179Z,3.86
2023-04-09T17:25:06.306Z,3.82
2023-04-09T17:27:38.333Z,3.62
2023-04-09T17:30:10.355Z,4.24
2023-04-09T17:32:42.100Z,4.02
2023-04-09T17:35:13.793Z,4.40
2023-04-09T17:37:45.896Z,4.05
2023-04-09T17:40:18.452Z,4.30
2023-04-09T17:42:51.019Z,4.41
2023-04-09T17:45:23.105Z,4.65
2023-04-09T17:47:55.177Z,4.62
2023-04-09T17:50:27.199Z,4.65
2023-04-09T17:52:59.224Z,5.12
2023-04-09T17:55:31.639Z,5.22
2023-04-09T17:58:03.815Z,5.14
2023-04-09T18:00:36.252Z,5.30
2023-04-09T18:03:08.551Z,5.43
2023-04-09T18:05:41.164Z,5.61
2023-04-09T18:08:13.678Z,5.65
2023-04-09T18:10:45.613Z,5.65
2023-04-09T18:13:17.576Z,6.18
2023-04-09T18:15:49.390Z,6.62
2023-04-09T18:18:21.756Z,6.42
2023-04-09T18:20:53.389Z,6.70
2023-04-09T18:23:25.331Z,6.73
2023-04-09T18:25:57.272Z,7.07
2023-04-09T18:28:29.368Z,6.91
2023-04-09T18:31:01.187Z,7.01
2023-04-09T18:33:33.202Z,7.31
2023-04-09T18:36:05.545Z,7.50
2023-04-09T18:38:37.444Z,7.73
2023-04-09T18:41:10.139Z,7.89
2023-04-09T18:43:42.794Z,7.76
2023-04-09T18:46:14.672Z,8.26
2023-04-09T18:48:46.417Z,8.03
2023-04-09T18:51:20.290Z,8.44
2023-04-09T18:53:53.223Z,8.26
2023-04-09T18:56:26.710Z,7.84
2023-04-09T18:58:59.611Z,8.52
2023-04-09T19:01:31.829Z,8.21
2023-04-09T19:04:07.025Z,8.65
2023-04-09T19:06:39.750Z,8.62
2023-04-09T19:09:12.244Z,8.45
2023-04-09T19:11:45.381Z,8.11
2023-04-09T19:14:19.218Z,8.01
2023-04-09T19:16:54.552Z,8.41
2023-04-09T19:19:26.445Z,8.20
2023-04-09T19:21:59.033Z,8.55
2023-04-09T19:24:30.972Z,7.94
2023-04-09T19:27:03.399Z,7.79
2023-04-09T19:29:35.984Z,7.72
2023-04-09T19:32:08.368Z,7.18
2023-04-09T19:34:41.539Z,7.54
2023-04-09T19:37:13.563Z,7.58
2023-04-09T19:39:46.427Z,7.82
2023-04-09T19:42:19.652Z,7.95
2023-04-09T19:44:53.012Z,7.93
2023-04-09T19:47:27.635Z,7.89
2023-04-09T19:50:00.753Z,7.84
2023-04-09T19:52:33.488Z,7.64
2023-04-09T19:55:06.567Z,7.80
2023-04-09T19:57:39.040Z,8.06
2023-04-09T20:00:12.168Z,7.75
2023-04-09T20:02:44.146Z,7.77
2023-04-09T20:05:16.952Z,8.08
2023-04-09T20:07:51.920Z,8.29
2023-04-09T20:10:23.982Z,8.11
2023-04-09T20:12:56.995Z,8.08
2023-04-09T20:15:29.098Z,8.16
2023-04-09T20:18:02.577Z,8.06
2023-04-09T20:20:34.803Z,8.01
2023-04-09T20:23:07.524Z,8.43
2023-04-09T20:25:40.831Z,8.08
2023-04-09T20:28:16.544Z,8.26
2023-04-09T20:30:49.449Z,8.22
2023-04-09T20:33:24.132Z,8.23
2023-04-09T20:35:56.356Z,8.27
2023-04-09T20:38:30.355Z,8.50
2023-04-09T20:41:02.814Z,7.88
2023-04-09T20:43:36.457Z,7.71
2023-04-09T20:46:09.453Z,7.97
2023-04-09T20:48:43.407Z,8.84
2023-04-09T20:51:15.835Z,7.92
2023-04-09T20:53:48.660Z,7.75
2023-04-09T20:56:23.807Z,8.11
2023-04-09T20:58:56.817Z,7.92
2023-04-09T21:01:29.744Z,8.46
2023-04-09T21:04:03.142Z,8.10
2023-04-09T21:06:35.594Z,7.94
2023-04-09T21:09:08.681Z,8.34
2023-04-09T21:11:42.542Z,8.13
2023-04-09T21:14:17.308Z,8.15
2023-04-09T21:16:50.379Z,8.07
2023-04-09T21:19:24.379Z,8.11
2023-04-09T21:22:01.219Z,8.02
2023-04-09T21:24:38.677Z,8.25
2023-04-09T21:27:12.343Z,8.04
2023-04-09T21:29:45.596Z,8.00
2023-04-09T21:32:19.094Z,8.40
2023-04-09T21:34:52.252Z,8.66
2023-04-09T21:37:27.700Z,8.34
2023-04-09T21:40:19.453Z,7.80
2023-04-09T21:43:10.982Z,7.76
2023-04-09T21:46:02.544Z,8.48
2023-04-09T21:48:54.345Z,8.41
2023-04-09T21:51:46.344Z,8.41
2023-04-09T21:54:37.859Z,8.22
2023-04-09T21:57:29.659Z,8.51
2023-04-09T22:00:21.239Z,8.26
2023-04-09T22:03:13.081Z,8.30
2023-04-09T22:06:05.035Z,7.97
2023-04-09T22:08:57.764Z,8.48
2023-04-09T22:11:49.844Z,8.22
2023-04-09T22:14:41.956Z,8.79
2023-04-09T22:17:33.691Z,8.27
2023-04-09T22:20:25.457Z,8.40
2023-04-09T22:23:17.030Z,8.68
2023-04-09T22:26:08.738Z,8.56
2023-04-09T22:29:00.312Z,8.41
2023-04-09T22:31:52.337Z,8.39
2023-04-09T22:34:43.878Z,8.46
2023-04-09T22:37:35.464Z,8.67
2023-04-09T22:40:27.019Z,8.08
2023-04-09T22:43:18.649Z,8.77
2023-04-09T22:46:10.271Z,8.59
2023-04-09T22:49:05.090Z,8.35
2023-04-09T22:51:57.263Z,8.32
2023-04-09T22:54:48.795Z,8.71
2023-04-09T22:57:40.352Z,8.86
2023-04-09T23:00:12.589Z,8.42
2023-04-09T23:02:46.899Z,8.25
2023-04-09T23:05:19.912Z,8.57
2023-04-09T23:07:53.808Z,8.27
2023-04-09T23:10:25.791Z,7.97
2023-04-09T23:12:58.032Z,8.12
2023-04-09T23:15:29.667Z,8.32
2023-04-09T23:18:02.028Z,8.37
2023-04-09T23:20:34.876Z,8.56
2023-04-09T23:23:06.496Z,7.79
2023-04-09T23:25:38.078Z,7.86
2023-04-09T23:28:10.292Z,8.13
2023-04-09T23:30:47.068Z,7.73
2023-04-09T23:33:20.084Z,7.76
2023-04-09T23:35:53.173Z,7.01
2023-04-09T23:38:29.687Z,8.49
2023-04-09T23:41:04.849Z,8.21
2023-04-09T23:43:43.492Z,7.27
2023-04-09T23:46:15.995Z,7.53
2023-04-09T23:48:47.811Z,7.36
2023-04-09T23:51:21.855Z,7.12
2023-04-09T23:53:54.071Z,7.37
2023-04-09T23:56:25.941Z,7.35
2023-04-09T23:58:57.499Z,7.24
